Dades meteomassalio
Diari Summary for Agost 11, 2017 Units:  English    Metric   Both
« Previous Day
Next Day »
Diari Semanal Mensual Anual Personalitzat
  Maxima: Minima: Mijana:
Temperatura: TemperatureC °F 14.5 °F 20 °F
Rosada: DewpointC °F 5.1 °F 7.5 °F
Humitat: Humidity % 25 % 46 %
Velocitat del vent: WindSpeedKMH mph 0.0 mph 24.1 mph
Racha vent: WindSpeedGustKMH mph - -
Vent:- - WNW
Pressio: PressurehPa in 1019.2 in -
Pluja: 0.0 in    
Historical Graphs
 
 
Tabular Data for Agost 11, 2017
Time Temperature Dew Point Pressure Wind Wind Speed Wind Gust Humidity Rainfall Rate (Hourly) solar Conditions
TemperatureC °F DewpointC °F PressurehPa in Calm     Humidity % HourlyPrecipMM in SolarRadiationWatts/m^2 W/m2 Conditions
00:03 17.6 °F 9.5 °F 1023.6 in WNW 29.6 mph 29.6 mph 59 % 0.0 in 0.0 W/m2 CLR
00:08 17.5 °F 9.4 °F 1023.6 in WNW 29.6 mph 29.6 mph 59 % 0.0 in 0.0 W/m2 CLR
00:13 17.4 °F 9.3 °F 1023.6 in West 25.9 mph 25.9 mph 59 % 0.0 in 0.0 W/m2 CLR
00:18 17.3 °F 9.2 °F 1023.9 in West 33.3 mph 33.3 mph 59 % 0.0 in 0.0 W/m2 CLR
00:23 17.2 °F 9.1 °F 1023.9 in WNW 29.6 mph 29.6 mph 59 % 0.0 in 0.0 W/m2 CLR
00:28 17.2 °F 9.3 °F 1023.6 in WNW 31.5 mph 31.5 mph 60 % 0.0 in 0.0 W/m2 CLR
00:33 17.1 °F 9.3 °F 1023.6 in West 25.9 mph 25.9 mph 60 % 0.0 in 0.0 W/m2 CLR
00:38 17.1 °F 9.2 °F 1023.6 in WNW 24.1 mph 24.1 mph 60 % 0.0 in 0.0 W/m2 CLR
00:43 17.0 °F 8.9 °F 1023.6 in WNW 29.0 mph 29.0 mph 59 % 0.0 in 0.0 W/m2 CLR
00:48 17.1 °F 8.7 °F 1023.6 in West 24.1 mph 24.1 mph 58 % 0.0 in 0.0 W/m2 CLR
00:53 17.1 °F 8.7 °F 1023.6 in WNW 29.6 mph 29.6 mph 58 % 0.0 in 0.0 W/m2 CLR
00:58 17.0 °F 8.9 °F 1023.2 in West 20.4 mph 20.4 mph 59 % 0.0 in 0.0 W/m2 CLR
01:03 16.9 °F 8.9 °F 1023.6 in WNW 27.8 mph 27.8 mph 59 % 0.0 in 0.0 W/m2 CLR
01:08 16.9 °F 8.9 °F 1023.6 in West 27.4 mph 27.4 mph 59 % 0.0 in 0.0 W/m2 CLR
01:13 16.8 °F 8.8 °F 1023.6 in West 24.1 mph 24.1 mph 59 % 0.0 in 0.0 W/m2 CLR
01:18 16.8 °F 9.0 °F 1023.6 in WNW 17.7 mph 17.7 mph 60 % 0.0 in 0.0 W/m2 CLR
01:23 16.8 °F 8.9 °F 1023.6 in West 22.2 mph 22.2 mph 60 % 0.0 in 0.0 W/m2 CLR
01:28 16.7 °F 9.1 °F 1023.6 in WSW 27.4 mph 27.4 mph 61 % 0.0 in 0.0 W/m2 CLR
01:33 16.7 °F 9.1 °F 1023.6 in West 24.1 mph 24.1 mph 61 % 0.0 in 0.0 W/m2 CLR
01:38 16.6 °F 9.1 °F 1023.6 in WNW 22.5 mph 22.5 mph 61 % 0.0 in 0.0 W/m2 CLR
01:44 16.5 °F 8.9 °F 1023.6 in West 24.1 mph 24.1 mph 61 % 0.0 in 0.0 W/m2 CLR
01:49 16.4 °F 8.8 °F 1023.6 in West 29.6 mph 29.6 mph 61 % 0.0 in 0.0 W/m2 CLR
01:54 16.4 °F 8.9 °F 1023.6 in West 35.2 mph 35.2 mph 61 % 0.0 in 0.0 W/m2 CLR
01:59 16.4 °F 8.8 °F 1023.6 in West 33.3 mph 33.3 mph 61 % 0.0 in 0.0 W/m2 CLR
02:04 16.3 °F 8.8 °F 1023.6 in West 33.3 mph 33.3 mph 61 % 0.0 in 0.0 W/m2 CLR
02:09 16.3 °F 8.8 °F 1023.6 in SW 27.4 mph 27.4 mph 61 % 0.0 in 0.0 W/m2 CLR
02:14 16.2 °F 8.9 °F 1023.6 in WNW 31.5 mph 31.5 mph 62 % 0.0 in 0.0 W/m2 CLR
02:19 16.2 °F 8.9 °F 1023.2 in WSW 31.5 mph 31.5 mph 62 % 0.0 in 0.0 W/m2 CLR
02:24 16.1 °F 8.8 °F 1023.2 in WNW 25.9 mph 25.9 mph 62 % 0.0 in 0.0 W/m2 CLR
02:29 16.1 °F 8.8 °F 1023.2 in WNW 31.5 mph 31.5 mph 62 % 0.0 in 0.0 W/m2 CLR
02:34 16.0 °F 8.7 °F 1023.2 in WNW 31.5 mph 31.5 mph 62 % 0.0 in 0.0 W/m2 CLR
02:39 16.0 °F 8.7 °F 1023.2 in WNW 33.3 mph 33.3 mph 62 % 0.0 in 0.0 W/m2 CLR
02:44 15.9 °F 8.7 °F 1023.2 in WNW 27.8 mph 27.8 mph 62 % 0.0 in 0.0 W/m2 CLR
02:49 15.9 °F 8.6 °F 1023.2 in West 31.5 mph 31.5 mph 62 % 0.0 in 0.0 W/m2 CLR
02:54 15.9 °F 8.7 °F 1023.2 in West 24.1 mph 24.1 mph 62 % 0.0 in 0.0 W/m2 CLR
02:59 15.8 °F 8.6 °F 1023.2 in West 25.7 mph 25.7 mph 62 % 0.0 in 0.0 W/m2 CLR
03:04 15.8 °F 8.3 °F 1022.9 in West 27.8 mph 27.8 mph 61 % 0.0 in 0.0 W/m2 CLR
03:09 15.8 °F 8.6 °F 1022.9 in West 33.3 mph 33.3 mph 62 % 0.0 in 0.0 W/m2 CLR
03:14 15.8 °F 8.3 °F 1022.9 in West 25.9 mph 25.9 mph 61 % 0.0 in 0.0 W/m2 CLR
03:19 15.8 °F 8.3 °F 1023.2 in WSW 20.4 mph 20.4 mph 61 % 0.0 in 0.0 W/m2 CLR
03:24 15.7 °F 8.2 °F 1023.2 in West 24.1 mph 24.1 mph 61 % 0.0 in 0.0 W/m2 CLR
03:29 15.7 °F 8.2 °F 1022.9 in WNW 29.6 mph 29.6 mph 61 % 0.0 in 0.0 W/m2 CLR
03:34 15.7 °F 8.2 °F 1022.9 in West 29.0 mph 29.0 mph 61 % 0.0 in 0.0 W/m2 CLR
03:39 15.7 °F 8.0 °F 1022.9 in West 27.8 mph 27.8 mph 60 % 0.0 in 0.0 W/m2 CLR
03:44 15.7 °F 8.0 °F 1023.2 in WSW 33.3 mph 33.3 mph 60 % 0.0 in 0.0 W/m2 CLR
03:49 15.8 °F 7.8 °F 1023.2 in WNW 35.2 mph 35.2 mph 59 % 0.0 in 0.0 W/m2 CLR
03:54 15.8 °F 7.8 °F 1023.2 in West 35.2 mph 35.2 mph 59 % 0.0 in 0.0 W/m2 CLR
03:59 15.8 °F 7.8 °F 1023.2 in West 25.9 mph 25.9 mph 59 % 0.0 in 0.0 W/m2 CLR
04:04 15.7 °F 7.7 °F 1023.2 in West 22.2 mph 22.2 mph 59 % 0.0 in 0.0 W/m2 CLR
04:09 15.6 °F 7.6 °F 1023.2 in West 29.6 mph 29.6 mph 59 % 0.0 in 0.0 W/m2 CLR
04:14 15.6 °F 7.6 °F 1023.2 in West 33.3 mph 33.3 mph 59 % 0.0 in 0.0 W/m2 CLR
04:19 15.5 °F 7.5 °F 1023.2 in West 27.8 mph 27.8 mph 59 % 0.0 in 0.0 W/m2 CLR
04:24 15.6 °F 7.6 °F 1023.2 in West 24.1 mph 24.1 mph 59 % 0.0 in 0.0 W/m2 CLR
04:29 15.6 °F 7.6 °F 1023.2 in WNW 29.6 mph 29.6 mph 59 % 0.0 in 0.0 W/m2 CLR
04:34 15.6 °F 7.4 °F 1023.2 in WNW 35.2 mph 35.2 mph 58 % 0.0 in 0.0 W/m2 CLR
04:39 15.6 °F 7.3 °F 1023.2 in WSW 31.5 mph 31.5 mph 58 % 0.0 in 0.0 W/m2 CLR
04:44 15.5 °F 7.3 °F 1023.2 in West 29.6 mph 29.6 mph 58 % 0.0 in 0.0 W/m2 CLR
04:49 15.4 °F 7.2 °F 1022.9 in West 38.9 mph 38.9 mph 58 % 0.0 in 0.0 W/m2 CLR
04:54 15.4 °F 7.2 °F 1022.9 in West 31.5 mph 31.5 mph 58 % 0.0 in 0.0 W/m2 CLR
04:59 15.4 °F 7.2 °F 1022.6 in West 31.5 mph 31.5 mph 58 % 0.0 in 0.0 W/m2 CLR
05:04 15.4 °F 7.2 °F 1022.6 in WNW 33.3 mph 33.3 mph 58 % 0.0 in 0.0 W/m2 CLR
05:09 15.3 °F 7.1 °F 1022.6 in WNW 35.4 mph 35.4 mph 58 % 0.0 in 0.0 W/m2 CLR
05:14 15.3 °F 7.1 °F 1022.6 in WNW 37.0 mph 37.0 mph 58 % 0.0 in 0.0 W/m2 CLR
05:19 15.3 °F 7.1 °F 1022.2 in WNW 42.6 mph 42.6 mph 58 % 0.0 in 0.0 W/m2 CLR
05:21 15.3 °F 7.1 °F 1022.2 in West 42.6 mph 42.6 mph 58 % 0.0 in 0.0 W/m2 CLR
05:26 15.3 °F 7.1 °F 1022.6 in WSW 35.2 mph 35.2 mph 58 % 0.0 in 0.0 W/m2 CLR
05:31 15.2 °F 7.0 °F 1022.6 in WNW 24.1 mph 24.1 mph 58 % 0.0 in 0.0 W/m2 CLR
05:36 15.2 °F 6.9 °F 1022.6 in WNW 31.5 mph 31.5 mph 58 % 0.0 in 0.0 W/m2 CLR
05:41 15.1 °F 6.7 °F 1022.2 in WNW 31.5 mph 31.5 mph 57 % 0.0 in 0.0 W/m2 CLR
05:46 15.1 °F 6.7 °F 1022.2 in WNW 38.9 mph 38.9 mph 57 % 0.0 in 0.0 W/m2 CLR
05:51 15.2 °F 6.7 °F 1022.2 in WNW 37.0 mph 37.0 mph 57 % 0.0 in 0.0 W/m2 CLR
05:56 15.1 °F 6.7 °F 1022.2 in NW 37.0 mph 37.0 mph 57 % 0.0 in 0.0 W/m2 CLR
06:01 15.1 °F 6.6 °F 1022.2 in WNW 29.0 mph 29.0 mph 57 % 0.0 in 0.0 W/m2 CLR
06:06 15.0 °F 6.6 °F 1022.6 in West 27.8 mph 27.8 mph 57 % 0.0 in 0.0 W/m2 CLR
06:11 15.1 °F 6.8 °F 1022.2 in WNW 18.5 mph 19.3 mph 58 % 0.0 in 0.0 W/m2 CLR
06:16 15.0 °F 6.8 °F 1022.6 in West 13.0 mph 13.0 mph 58 % 0.0 in 0.0 W/m2 CLR
06:21 14.9 °F 6.7 °F 1022.6 in West 18.5 mph 18.5 mph 58 % 0.0 in 0.0 W/m2 CLR
06:26 14.9 °F 6.9 °F 1022.6 in WSW 18.5 mph 18.5 mph 59 % 0.0 in 0.0 W/m2 CLR
06:27 14.9 °F 6.9 °F 1022.6 in WSW 18.5 mph 18.5 mph 59 % 0.0 in 0.0 W/m2 CLR
06:32 14.8 °F 6.8 °F 1022.6 in SSW 13.0 mph 13.0 mph 59 % 0.0 in 0.0 W/m2 CLR
06:37 14.7 °F 7.1 °F 1022.6 in West 20.4 mph 20.4 mph 60 % 0.0 in 0.0 W/m2 CLR
06:42 14.7 °F 7.1 °F 1022.6 in WSW 18.5 mph 18.5 mph 60 % 0.0 in 0.0 W/m2 CLR
06:47 14.7 °F 7.0 °F 1022.6 in SW 5.6 mph 5.6 mph 60 % 0.0 in 0.0 W/m2 CLR
06:52 14.6 °F 7.1 °F 1022.6 in WSW 9.3 mph 9.3 mph 61 % 0.0 in 0.0 W/m2 CLR
06:57 14.5 °F 7.1 °F 1022.6 in West 18.5 mph 18.5 mph 61 % 0.0 in 0.0 W/m2 CLR
07:02 14.6 °F 7.3 °F 1022.6 in West 22.2 mph 22.2 mph 62 % 0.0 in 0.0 W/m2 OVC
07:07 14.5 °F 7.3 °F 1022.6 in West 14.5 mph 14.5 mph 62 % 0.0 in 0.0 W/m2 OVC
07:12 14.5 °F 7.3 °F 1022.9 in WSW 16.7 mph 16.7 mph 62 % 0.0 in 5.0 W/m2 OVC
07:17 14.6 °F 7.6 °F 1022.9 in WSW 11.1 mph 11.1 mph 63 % 0.0 in 9.0 W/m2 BKN
07:22 14.6 °F 7.6 °F 1022.9 in West 18.5 mph 18.5 mph 63 % 0.0 in 11.0 W/m2 BKN
07:27 14.6 °F 7.7 °F 1022.9 in WNW 22.2 mph 22.2 mph 63 % 0.0 in 14.0 W/m2 BKN
07:32 14.7 °F 7.7 °F 1022.9 in West 25.9 mph 25.9 mph 63 % 0.0 in 14.0 W/m2 BKN
07:37 14.6 °F 7.7 °F 1022.9 in NNW 20.9 mph 20.9 mph 63 % 0.0 in 19.0 W/m2 BKN
07:42 14.7 °F 7.7 °F 1022.9 in West 22.2 mph 22.2 mph 63 % 0.0 in 21.0 W/m2 BKN
07:47 14.7 °F 7.7 °F 1022.9 in WNW 22.2 mph 22.2 mph 63 % 0.0 in 28.0 W/m2 BKN
07:52 14.7 °F 7.7 °F 1023.2 in WSW 16.7 mph 16.7 mph 63 % 0.0 in 39.0 W/m2 BKN
07:57 14.8 °F 7.8 °F 1023.2 in SW 16.7 mph 16.7 mph 63 % 0.0 in 62.0 W/m2 SCT
08:02 14.9 °F 7.9 °F 1023.2 in West 13.0 mph 13.0 mph 63 % 0.0 in 98.0 W/m2 CLR
08:07 15.1 °F 7.8 °F 1022.9 in West 20.4 mph 20.4 mph 62 % 0.0 in 125.0 W/m2 CLR
08:12 15.2 °F 7.9 °F 1022.9 in WNW 16.7 mph 16.7 mph 62 % 0.0 in 144.0 W/m2 CLR
08:17 15.3 °F 8.1 °F 1023.2 in WSW 12.9 mph 12.9 mph 62 % 0.0 in 155.0 W/m2 CLR
08:22 15.5 °F 8.0 °F 1022.9 in West 27.8 mph 27.8 mph 61 % 0.0 in 193.0 W/m2 CLR
08:27 15.7 °F 8.0 °F 1023.2 in West 18.5 mph 18.5 mph 60 % 0.0 in 227.0 W/m2 CLR
08:32 15.8 °F 8.1 °F 1023.2 in NNW 22.2 mph 22.2 mph 60 % 0.0 in 230.0 W/m2 CLR
08:37 16.0 °F 8.2 °F 1023.2 in NW 20.4 mph 20.4 mph 60 % 0.0 in 253.0 W/m2 CLR
08:42 15.9 °F 7.9 °F 1023.2 in WNW 27.8 mph 27.8 mph 59 % 0.0 in 83.0 W/m2 CLR
08:47 15.8 °F 8.0 °F 1023.2 in NW 22.2 mph 22.2 mph 60 % 0.0 in 102.0 W/m2 CLR
08:52 15.7 °F 8.2 °F 1023.2 in West 18.5 mph 18.5 mph 61 % 0.0 in 93.0 W/m2 CLR
08:57 15.8 °F 8.3 °F 1023.2 in WNW 31.5 mph 31.5 mph 61 % 0.0 in 281.0 W/m2 CLR
09:02 16.1 °F 8.3 °F 1023.2 in NW 29.6 mph 29.6 mph 60 % 0.0 in 318.0 W/m2 CLR
09:07 16.3 °F 8.3 °F 1023.2 in NW 31.5 mph 31.5 mph 59 % 0.0 in 295.0 W/m2 CLR
09:12 16.3 °F 8.3 °F 1023.2 in WNW 33.3 mph 33.3 mph 59 % 0.0 in 253.0 W/m2 CLR
09:17 16.4 °F 8.3 °F 1023.2 in NW 29.6 mph 29.6 mph 59 % 0.0 in 287.0 W/m2 CLR
09:22 16.6 °F 8.5 °F 1023.2 in NW 24.1 mph 24.1 mph 59 % 0.0 in 373.0 W/m2 CLR
09:27 16.9 °F 8.6 °F 1023.6 in WNW 35.2 mph 35.2 mph 58 % 0.0 in 439.0 W/m2 CLR
09:32 17.0 °F 8.7 °F 1023.6 in WNW 31.5 mph 31.5 mph 58 % 0.0 in 181.0 W/m2 CLR
09:37 17.1 °F 8.4 °F 1023.6 in NW 38.9 mph 38.9 mph 57 % 0.0 in 281.0 W/m2 CLR
09:42 17.2 °F 8.6 °F 1023.2 in NW 30.6 mph 30.6 mph 57 % 0.0 in 408.0 W/m2 CLR
09:47 17.2 °F 8.6 °F 1023.2 in NNW 37.0 mph 37.0 mph 57 % 0.0 in 311.0 W/m2 CLR
09:52 17.1 °F 8.5 °F 1023.2 in NNW 35.4 mph 35.4 mph 57 % 0.0 in 141.0 W/m2 CLR
09:57 16.9 °F 8.6 °F 1023.2 in WNW 18.5 mph 18.5 mph 58 % 0.0 in 367.0 W/m2 CLR
10:02 17.2 °F 8.4 °F 1023.2 in NW 27.8 mph 27.8 mph 56 % 0.0 in 510.0 W/m2 CLR
10:07 17.3 °F 8.4 °F 1023.2 in NW 27.8 mph 27.8 mph 56 % 0.0 in 260.0 W/m2 CLR
10:12 17.6 °F 8.4 °F 1023.2 in NNW 31.5 mph 31.5 mph 55 % 0.0 in 554.0 W/m2 CLR
10:17 17.8 °F 8.9 °F 1022.9 in NNW 16.1 mph 16.1 mph 56 % 0.0 in 587.0 W/m2 CLR
10:19 17.9 °F 8.7 °F 1022.9 in NNW 27.4 mph 27.4 mph 55 % 0.0 in 570.0 W/m2 CLR
10:24 18.1 °F 8.6 °F 1022.9 in NW 31.5 mph 31.5 mph 54 % 0.0 in 501.0 W/m2 CLR
10:29 18.1 °F 8.4 °F 1022.9 in WNW 29.6 mph 29.6 mph 53 % 0.0 in 659.0 W/m2 CLR
10:34 18.4 °F 8.3 °F 1022.9 in WNW 35.2 mph 35.2 mph 52 % 0.0 in 701.0 W/m2 CLR
10:39 18.3 °F 8.2 °F 1022.9 in WNW 29.6 mph 29.6 mph 52 % 0.0 in 185.0 W/m2 CLR
10:44 17.8 °F 8.1 °F 1023.2 in WNW 24.1 mph 24.1 mph 53 % 0.0 in 292.0 W/m2 CLR
10:49 17.9 °F 8.5 °F 1023.2 in WNW 18.5 mph 18.5 mph 54 % 0.0 in 496.0 W/m2 CLR
10:54 18.5 °F 8.4 °F 1022.9 in WNW 27.8 mph 27.8 mph 52 % 0.0 in 496.0 W/m2 CLR
10:59 18.7 °F 8.4 °F 1022.9 in NW 35.4 mph 35.4 mph 51 % 0.0 in 680.0 W/m2 CLR
11:04 18.7 °F 8.7 °F 1022.9 in WNW 25.9 mph 25.9 mph 52 % 0.0 in 682.0 W/m2 CLR
11:09 19.2 °F 8.5 °F 1022.9 in WNW 31.5 mph 31.5 mph 50 % 0.0 in 712.0 W/m2 CLR
11:14 19.2 °F 8.5 °F 1022.9 in North 24.1 mph 24.1 mph 50 % 0.0 in 684.0 W/m2 CLR
11:19 19.4 °F 8.4 °F 1022.9 in NW 20.9 mph 20.9 mph 49 % 0.0 in 698.0 W/m2 CLR
11:24 19.6 °F 8.2 °F 1022.6 in NW 31.5 mph 31.5 mph 48 % 0.0 in 515.0 W/m2 CLR
11:29 19.6 °F 8.6 °F 1022.6 in WNW 31.5 mph 31.5 mph 49 % 0.0 in 749.0 W/m2 CLR
11:34 20.0 °F 8.7 °F 1022.6 in NW 24.1 mph 24.1 mph 48 % 0.0 in 726.0 W/m2 CLR
11:39 20.3 °F 8.7 °F 1022.6 in NW 20.9 mph 20.9 mph 47 % 0.0 in 735.0 W/m2 CLR
11:44 20.3 °F 8.3 °F 1022.2 in WNW 29.0 mph 29.0 mph 46 % 0.0 in 751.0 W/m2 CLR
11:49 20.3 °F 8.3 °F 1022.6 in NNW 33.3 mph 33.3 mph 46 % 0.0 in 759.0 W/m2 CLR
11:54 20.4 °F 8.1 °F 1022.6 in NNW 24.1 mph 24.1 mph 45 % 0.0 in 770.0 W/m2 CLR
11:59 20.5 °F 8.2 °F 1022.2 in North 33.3 mph 33.3 mph 45 % 0.0 in 775.0 W/m2 CLR
12:04 20.7 °F 8.3 °F 1022.2 in NW 22.2 mph 22.2 mph 45 % 0.0 in 788.0 W/m2 CLR
12:09 20.9 °F 8.2 °F 1022.2 in NNW 30.6 mph 30.6 mph 44 % 0.0 in 795.0 W/m2 CLR
12:14 20.8 °F 8.1 °F 1022.2 in West 14.8 mph 14.8 mph 44 % 0.0 in 807.0 W/m2 CLR
12:19 21.0 °F 8.3 °F 1021.9 in North 27.8 mph 27.8 mph 44 % 0.0 in 814.0 W/m2 CLR
12:24 21.2 °F 8.4 °F 1021.9 in WNW 19.3 mph 19.3 mph 44 % 0.0 in 821.0 W/m2 CLR
12:29 21.3 °F 8.2 °F 1022.2 in NW 33.3 mph 33.3 mph 43 % 0.0 in 830.0 W/m2 CLR
12:34 21.4 °F 8.3 °F 1022.2 in WNW 33.3 mph 33.3 mph 43 % 0.0 in 838.0 W/m2 CLR
12:39 21.1 °F 8.1 °F 1021.9 in NNW 27.8 mph 27.8 mph 43 % 0.0 in 842.0 W/m2 CLR
12:44 21.3 °F 7.8 °F 1022.2 in North 31.5 mph 31.5 mph 42 % 0.0 in 849.0 W/m2 CLR
12:49 21.4 °F 8.3 °F 1021.9 in NW 25.9 mph 25.9 mph 43 % 0.0 in 856.0 W/m2 CLR
12:54 21.6 °F 8.2 °F 1021.9 in NW 37.0 mph 37.0 mph 42 % 0.0 in 863.0 W/m2 CLR
12:59 21.5 °F 8.4 °F 1021.9 in West 25.7 mph 25.7 mph 43 % 0.0 in 870.0 W/m2 CLR
13:04 21.8 °F 8.3 °F 1021.9 in WNW 24.1 mph 24.1 mph 42 % 0.0 in 877.0 W/m2 CLR
13:09 22.0 °F 8.5 °F 1021.9 in NW 27.8 mph 27.8 mph 42 % 0.0 in 888.0 W/m2 CLR
13:14 22.1 °F 8.6 °F 1021.9 in NNW 22.2 mph 22.2 mph 42 % 0.0 in 891.0 W/m2 CLR
13:19 22.3 °F 8.4 °F 1021.9 in NW 25.9 mph 25.9 mph 41 % 0.0 in 844.0 W/m2 CLR
13:24 22.3 °F 8.4 °F 1021.9 in NW 24.1 mph 24.1 mph 41 % 0.0 in 896.0 W/m2 CLR
13:34 22.6 °F 8.7 °F 1021.6 in NNW 33.3 mph 33.3 mph 41 % 0.0 in 882.0 W/m2 CLR
13:39 22.8 °F 8.9 °F 1021.6 in NNW 20.4 mph 20.4 mph 41 % 0.0 in 833.0 W/m2 CLR
13:44 22.8 °F 8.4 °F 1021.6 in NW 29.6 mph 29.6 mph 40 % 0.0 in 874.0 W/m2 CLR
13:49 22.8 °F 8.5 °F 1021.2 in North 19.3 mph 19.3 mph 40 % 0.0 in 875.0 W/m2 CLR
13:54 23.3 °F 8.6 °F 1021.6 in NW 35.2 mph 35.2 mph 39 % 0.0 in 907.0 W/m2 CLR
13:59 23.0 °F 8.7 °F 1021.2 in North 20.9 mph 20.9 mph 40 % 0.0 in 851.0 W/m2 CLR
14:04 23.1 °F 8.3 °F 1021.2 in NNE 22.2 mph 22.2 mph 39 % 0.0 in 911.0 W/m2 CLR
14:09 23.7 °F 8.5 °F 1021.6 in North 27.8 mph 27.8 mph 38 % 0.0 in 856.0 W/m2 CLR
14:14 23.4 °F 7.9 °F 1021.2 in North 20.4 mph 20.4 mph 37 % 0.0 in 940.0 W/m2 CLR
14:19 23.4 °F 7.9 °F 1021.2 in North 31.5 mph 31.5 mph 37 % 0.0 in 849.0 W/m2 CLR
14:24 23.4 °F 7.9 °F 1021.2 in WNW 24.1 mph 24.1 mph 37 % 0.0 in 803.0 W/m2 CLR
14:29 23.6 °F 8.1 °F 1021.2 in NNW 30.6 mph 30.6 mph 37 % 0.0 in 946.0 W/m2 CLR
14:34 23.7 °F 7.7 °F 1021.2 in NNW 29.6 mph 29.6 mph 36 % 0.0 in 907.0 W/m2 CLR
14:39 23.8 °F 7.8 °F 1020.9 in West 31.5 mph 31.5 mph 36 % 0.0 in 888.0 W/m2 CLR
14:44 23.8 °F 7.8 °F 1021.2 in NNW 25.9 mph 25.9 mph 36 % 0.0 in 932.0 W/m2 CLR
14:49 23.7 °F 7.8 °F 1020.9 in NNW 22.2 mph 22.2 mph 36 % 0.0 in 779.0 W/m2 CLR
14:54 24.0 °F 8.0 °F 1020.9 in NW 27.8 mph 27.8 mph 36 % 0.0 in 842.0 W/m2 CLR
14:59 24.4 °F 7.9 °F 1020.9 in NNW 22.2 mph 22.2 mph 35 % 0.0 in 858.0 W/m2 CLR
15:04 24.2 °F 7.8 °F 1020.9 in NW 20.9 mph 20.9 mph 35 % 0.0 in 911.0 W/m2 CLR
15:09 24.5 °F 8.1 °F 1020.9 in NW 22.5 mph 22.5 mph 35 % 0.0 in 802.0 W/m2 CLR
15:14 24.7 °F 6.9 °F 1020.9 in NNW 35.2 mph 35.2 mph 32 % 0.0 in 904.0 W/m2 CLR
15:19 24.7 °F 7.8 °F 1020.9 in NNW 22.2 mph 22.2 mph 34 % 0.0 in 842.0 W/m2 CLR
15:24 24.8 °F 7.4 °F 1020.9 in North 18.5 mph 18.5 mph 33 % 0.0 in 868.0 W/m2 CLR
15:29 24.9 °F 7.1 °F 1020.5 in NW 22.5 mph 22.5 mph 32 % 0.0 in 853.0 W/m2 CLR
15:34 25.0 °F 7.2 °F 1020.5 in NNW 31.5 mph 31.5 mph 32 % 0.0 in 847.0 W/m2 CLR
15:39 24.9 °F 7.1 °F 1020.5 in NNW 37.0 mph 37.0 mph 32 % 0.0 in 842.0 W/m2 CLR
15:44 24.9 °F 7.1 °F 1020.5 in NW 20.4 mph 20.4 mph 32 % 0.0 in 830.0 W/m2 CLR
15:49 25.2 °F 6.8 °F 1020.5 in WNW 31.5 mph 31.5 mph 31 % 0.0 in 824.0 W/m2 CLR
15:54 25.1 °F 7.2 °F 1020.5 in NNE 3.2 mph 3.2 mph 32 % 0.0 in 817.0 W/m2 CLR
15:59 25.4 °F 7.1 °F 1020.5 in NW 29.6 mph 29.6 mph 31 % 0.0 in 803.0 W/m2 CLR
16:04 25.4 °F 7.5 °F 1020.2 in NW 24.1 mph 24.1 mph 32 % 0.0 in 795.0 W/m2 CLR
16:09 25.4 °F 7.9 °F 1020.2 in NNW 20.9 mph 20.9 mph 33 % 0.0 in 780.0 W/m2 CLR
16:14 25.3 °F 7.4 °F 1020.2 in NNW 24.1 mph 24.1 mph 32 % 0.0 in 775.0 W/m2 CLR
16:19 25.4 °F 7.9 °F 1020.2 in NNW 25.9 mph 25.9 mph 33 % 0.0 in 763.0 W/m2 CLR
16:24 25.6 °F 7.2 °F 1020.2 in WNW 33.3 mph 33.3 mph 31 % 0.0 in 737.0 W/m2 CLR
16:29 25.7 °F 7.3 °F 1020.2 in NW 31.5 mph 31.5 mph 31 % 0.0 in 731.0 W/m2 CLR
16:39 25.7 °F 7.3 °F 1019.9 in NW 25.9 mph 25.9 mph 31 % 0.0 in 724.0 W/m2 CLR
16:44 26.1 °F 6.6 °F 1019.9 in WNW 31.5 mph 31.5 mph 29 % 0.0 in 714.0 W/m2 CLR
16:49 26.0 °F 6.6 °F 1019.9 in NW 33.3 mph 33.3 mph 29 % 0.0 in 701.0 W/m2 CLR
16:55 26.0 °F 7.1 °F 1019.5 in WNW 24.1 mph 24.1 mph 30 % 0.0 in 689.0 W/m2 CLR
17:00 26.2 °F 6.8 °F 1019.9 in WNW 24.1 mph 24.1 mph 29 % 0.0 in 677.0 W/m2 CLR
17:05 26.0 °F 6.6 °F 1019.9 in WNW 18.5 mph 18.5 mph 29 % 0.0 in 668.0 W/m2 CLR
17:10 26.1 °F 7.1 °F 1019.9 in NW 13.0 mph 13.0 mph 30 % 0.0 in 668.0 W/m2 CLR
17:11 26.1 °F 7.2 °F 1019.9 in North 22.5 mph 22.5 mph 30 % 0.0 in 610.0 W/m2 CLR
17:16 26.2 °F 6.7 °F 1019.5 in WNW 37.0 mph 37.0 mph 29 % 0.0 in 642.0 W/m2 CLR
17:21 26.2 °F 6.3 °F 1019.5 in NW 29.6 mph 29.6 mph 28 % 0.0 in 615.0 W/m2 CLR
17:25 26.2 °F 6.3 °F 1019.5 in NNW 22.2 mph 22.2 mph 28 % 0.0 in 613.0 W/m2 CLR
17:30 26.5 °F 6.5 °F 1019.5 in WNW 24.1 mph 24.1 mph 28 % 0.0 in 601.0 W/m2 CLR
17:35 26.5 °F 6.0 °F 1019.5 in WNW 20.4 mph 20.4 mph 27 % 0.0 in 585.0 W/m2 CLR
17:40 26.7 °F 6.7 °F 1019.5 in NW 22.5 mph 22.5 mph 28 % 0.0 in 577.0 W/m2 CLR
17:45 26.9 °F 5.8 °F 1019.5 in WNW 29.0 mph 29.0 mph 26 % 0.0 in 564.0 W/m2 CLR
17:50 26.6 °F 5.5 °F 1019.5 in WSW 18.5 mph 18.5 mph 26 % 0.0 in 543.0 W/m2 CLR
17:55 26.5 °F 6.0 °F 1019.5 in West 31.5 mph 31.5 mph 27 % 0.0 in 526.0 W/m2 CLR
18:00 26.5 °F 6.0 °F 1019.5 in WNW 22.2 mph 22.2 mph 27 % 0.0 in 512.0 W/m2 CLR
18:05 26.4 °F 5.9 °F 1019.5 in NW 24.1 mph 24.1 mph 27 % 0.0 in 501.0 W/m2 CLR
18:10 26.7 °F 6.2 °F 1019.5 in NNW 29.6 mph 29.6 mph 27 % 0.0 in 485.0 W/m2 CLR
18:15 26.6 °F 6.0 °F 1019.2 in NW 25.7 mph 25.7 mph 27 % 0.0 in 466.0 W/m2 CLR
18:20 26.7 °F 5.6 °F 1019.5 in NNW 31.5 mph 31.5 mph 26 % 0.0 in 448.0 W/m2 CLR
18:25 26.7 °F 5.6 °F 1019.5 in WNW 18.5 mph 18.5 mph 26 % 0.0 in 434.0 W/m2 CLR
18:30 26.9 °F 5.8 °F 1019.2 in NNW 22.2 mph 22.2 mph 26 % 0.0 in 417.0 W/m2 CLR
18:35 26.7 °F 5.6 °F 1019.2 in NNW 24.1 mph 24.1 mph 26 % 0.0 in 399.0 W/m2 CLR
18:40 26.7 °F 5.6 °F 1019.2 in WNW 22.2 mph 22.2 mph 26 % 0.0 in 385.0 W/m2 CLR
18:45 26.8 °F 5.2 °F 1019.2 in WNW 16.7 mph 16.7 mph 25 % 0.0 in 369.0 W/m2 CLR
18:50 27.0 °F 5.3 °F 1019.2 in NNW 20.4 mph 20.4 mph 25 % 0.0 in 355.0 W/m2 CLR
18:55 26.8 °F 5.1 °F 1019.2 in NNE 18.5 mph 18.5 mph 25 % 0.0 in 336.0 W/m2 CLR
19:00 26.7 °F 5.6 °F 1019.2 in North 18.5 mph 18.5 mph 26 % 0.0 in 322.0 W/m2 CLR
19:05 26.5 °F 6.0 °F 1019.2 in North 18.5 mph 18.5 mph 27 % 0.0 in 302.0 W/m2 CLR
19:10 26.5 °F 6.0 °F 1019.2 in NNW 18.5 mph 18.5 mph 27 % 0.0 in 287.0 W/m2 CLR
19:15 26.4 °F 5.9 °F 1019.2 in NNW 27.4 mph 27.4 mph 27 % 0.0 in 267.0 W/m2 CLR
19:20 26.3 °F 6.3 °F 1019.2 in North 31.5 mph 31.5 mph 28 % 0.0 in 255.0 W/m2 CLR
19:25 26.3 °F 6.3 °F 1019.2 in NNW 25.9 mph 25.9 mph 28 % 0.0 in 239.0 W/m2 CLR
19:30 26.2 °F 6.2 °F 1019.2 in NNW 22.5 mph 22.5 mph 28 % 0.0 in 223.0 W/m2 CLR
19:35 26.1 °F 6.2 °F 1019.2 in North 25.9 mph 25.9 mph 28 % 0.0 in 202.0 W/m2 CLR
19:40 26.1 °F 6.1 °F 1019.2 in NW 14.8 mph 14.8 mph 28 % 0.0 in 167.0 W/m2 CLR
19:45 25.8 °F 5.9 °F 1019.5 in NNW 22.2 mph 22.2 mph 28 % 0.0 in 125.0 W/m2 CLR
19:50 25.6 °F 6.2 °F 1019.5 in NW 14.8 mph 14.8 mph 29 % 0.0 in 148.0 W/m2 CLR
19:55 25.5 °F 6.2 °F 1019.5 in NW 25.9 mph 25.9 mph 29 % 0.0 in 113.0 W/m2 CLR
20:00 25.4 °F 6.6 °F 1019.5 in NNW 31.5 mph 31.5 mph 30 % 0.0 in 105.0 W/m2 CLR
20:05 25.2 °F 6.9 °F 1019.5 in NW 19.3 mph 19.3 mph 31 % 0.0 in 93.0 W/m2 FEW
20:10 25.1 °F 6.8 °F 1019.5 in NNW 31.5 mph 31.5 mph 31 % 0.0 in 81.0 W/m2 FEW
20:15 25.0 °F 6.7 °F 1019.9 in NW 22.2 mph 22.2 mph 31 % 0.0 in 69.0 W/m2 FEW
20:20 24.8 °F 6.5 °F 1019.9 in North 20.4 mph 20.4 mph 31 % 0.0 in 37.0 W/m2 BKN
20:25 24.6 °F 6.3 °F 1019.9 in WNW 20.9 mph 20.9 mph 31 % 0.0 in 28.0 W/m2 BKN
20:30 24.4 °F 6.6 °F 1019.9 in NNW 18.5 mph 18.5 mph 32 % 0.0 in 30.0 W/m2 BKN
20:35 24.4 °F 6.6 °F 1019.9 in NW 22.2 mph 22.2 mph 32 % 0.0 in 30.0 W/m2 BKN
20:40 24.3 °F 6.5 °F 1019.9 in NNW 18.5 mph 18.5 mph 32 % 0.0 in 25.0 W/m2 BKN
20:45 24.1 °F 6.8 °F 1019.9 in NW 20.4 mph 20.4 mph 33 % 0.0 in 21.0 W/m2 BKN
20:50 23.9 °F 6.6 °F 1019.9 in NW 20.4 mph 20.4 mph 33 % 0.0 in 16.0 W/m2 BKN
20:55 23.7 °F 6.9 °F 1019.9 in North 16.1 mph 16.1 mph 34 % 0.0 in 11.0 W/m2 BKN
21:01 23.5 °F 6.7 °F 1019.9 in NW 16.7 mph 16.7 mph 34 % 0.0 in 7.0 W/m2 BKN
21:06 23.3 °F 6.6 °F 1019.9 in NNW 18.5 mph 18.5 mph 34 % 0.0 in 0.0 W/m2 OVC
21:10 23.2 °F 6.5 °F 1020.2 in NW 13.0 mph 13.0 mph 34 % 0.0 in 5.0 W/m2 OVC
21:16 23.1 °F 6.4 °F 1020.2 in NW 18.5 mph 18.5 mph 34 % 0.0 in 0.0 W/m2 CLR
21:21 22.9 °F 6.7 °F 1020.2 in NNW 16.1 mph 16.1 mph 35 % 0.0 in 0.0 W/m2 CLR
21:26 22.8 °F 6.5 °F 1020.2 in WNW 11.1 mph 11.1 mph 35 % 0.0 in 0.0 W/m2 CLR
21:31 22.7 °F 6.4 °F 1020.5 in WNW 16.7 mph 16.7 mph 35 % 0.0 in 0.0 W/m2 CLR
21:36 22.6 °F 6.3 °F 1020.5 in WNW 14.8 mph 14.8 mph 35 % 0.0 in 0.0 W/m2 CLR
21:41 22.4 °F 6.2 °F 1020.5 in NW 24.1 mph 24.1 mph 35 % 0.0 in 0.0 W/m2 CLR
21:46 22.4 °F 6.2 °F 1020.9 in NW 22.2 mph 22.2 mph 35 % 0.0 in 0.0 W/m2 CLR
21:51 22.3 °F 6.1 °F 1020.9 in WNW 18.5 mph 18.5 mph 35 % 0.0 in 0.0 W/m2 CLR
21:56 22.2 °F 6.4 °F 1020.9 in NW 20.4 mph 20.4 mph 36 % 0.0 in 0.0 W/m2 CLR
22:01 22.1 °F 6.3 °F 1021.2 in NW 11.3 mph 11.3 mph 36 % 0.0 in 0.0 W/m2 CLR
22:06 22.0 °F 6.2 °F 1021.2 in NW 13.0 mph 13.0 mph 36 % 0.0 in 0.0 W/m2 CLR
22:11 21.9 °F 6.1 °F 1021.2 in NW 18.5 mph 18.5 mph 36 % 0.0 in 0.0 W/m2 CLR
22:16 21.8 °F 6.5 °F 1021.2 in NW 18.5 mph 18.5 mph 37 % 0.0 in 0.0 W/m2 CLR
22:21 21.7 °F 6.4 °F 1021.2 in WNW 14.8 mph 14.8 mph 37 % 0.0 in 0.0 W/m2 CLR
22:26 21.6 °F 6.3 °F 1021.2 in West 13.0 mph 13.0 mph 37 % 0.0 in 0.0 W/m2 CLR
22:31 21.6 °F 6.7 °F 1021.2 in WSW 18.5 mph 18.5 mph 38 % 0.0 in 0.0 W/m2 CLR
22:36 21.6 °F 6.7 °F 1021.2 in WNW 16.7 mph 16.7 mph 38 % 0.0 in 0.0 W/m2 CLR
22:41 21.4 °F 6.5 °F 1021.2 in Calm     38 % 0.0 in 0.0 W/m2 CLR
22:46 21.3 °F 6.8 °F 1021.2 in Calm     39 % 0.0 in 0.0 W/m2 CLR
22:51 21.2 °F 6.7 °F 1021.2 in Calm     39 % 0.0 in 0.0 W/m2 CLR
22:56 21.1 °F 6.9 °F 1021.6 in West 11.1 mph 11.1 mph 40 % 0.0 in 0.0 W/m2 CLR
23:01 21.1 °F 6.9 °F 1021.6 in WSW 1.9 mph 1.9 mph 40 % 0.0 in 0.0 W/m2 CLR
23:06 21.0 °F 7.2 °F 1021.6 in WSW 5.6 mph 5.6 mph 41 % 0.0 in 0.0 W/m2 CLR
23:11 20.9 °F 7.2 °F 1021.6 in Calm     41 % 0.0 in 0.0 W/m2 CLR
23:16 20.8 °F 7.1 °F 1021.6 in WSW 5.6 mph 5.6 mph 41 % 0.0 in 0.0 W/m2 CLR
23:21 20.6 °F 7.2 °F 1021.6 in WSW 5.6 mph 5.6 mph 42 % 0.0 in 0.0 W/m2 CLR
23:26 20.4 °F 7.1 °F 1021.6 in Calm     42 % 0.0 in 0.0 W/m2 CLR
23:31 20.2 °F 7.2 °F 1021.6 in West 5.6 mph 5.6 mph 43 % 0.0 in 0.0 W/m2 CLR
23:36 20.3 °F 7.3 °F 1021.2 in West 11.1 mph 11.1 mph 43 % 0.0 in 0.0 W/m2 CLR
23:41 20.4 °F 7.4 °F 1021.2 in West 9.3 mph 9.3 mph 43 % 0.0 in 0.0 W/m2 CLR
23:46 20.3 °F 7.7 °F 1021.2 in West 13.0 mph 13.0 mph 44 % 0.0 in 0.0 W/m2 CLR
23:51 20.3 °F 7.7 °F 1021.6 in West 18.5 mph 18.5 mph 44 % 0.0 in 0.0 W/m2 CLR
23:56 20.3 °F 7.7 °F 1021.2 in Calm     44 % 0.0 in 0.0 W/m2 CLR
Lo Temps de Massalio
Compliments of Weather Underground - 1.25 mb